sensor_id;sensor_type;location;lat;lon;timestamp;pressure;altitude;pressure_sealevel;temperature;humidity
54407;BME280;40313;50.308;30.374;2023-03-01T00:01:24;100334.19;;;-5.54;100.00
54407;BME280;40313;50.308;30.374;2023-03-01T00:03:51;100331.66;;;-5.54;100.00
54407;BME280;40313;50.308;30.374;2023-03-01T00:06:18;100335.13;;;-5.49;100.00
54407;BME280;40313;50.308;30.374;2023-03-01T00:08:44;100326.69;;;-5.48;100.00
54407;BME280;40313;50.308;30.374;2023-03-01T00:11:12;100330.13;;;-5.46;100.00
54407;BME280;40313;50.308;30.374;2023-03-01T00:13:39;100322.41;;;-5.49;100.00
54407;BME280;40313;50.308;30.374;2023-03-01T00:16:06;100310.59;;;-5.47;100.00
54407;BME280;40313;50.308;30.374;2023-03-01T00:18:34;100315.69;;;-5.47;100.00
54407;BME280;40313;50.308;30.374;2023-03-01T00:21:01;100310.69;;;-5.42;100.00
54407;BME280;40313;50.308;30.374;2023-03-01T00:23:27;100311.44;;;-5.48;100.00
54407;BME280;40313;50.308;30.374;2023-03-01T00:25:54;100305.53;;;-5.47;100.00
54407;BME280;40313;50.308;30.374;2023-03-01T00:28:20;100301.25;;;-5.48;100.00
54407;BME280;40313;50.308;30.374;2023-03-01T00:30:47;100296.19;;;-5.48;100.00
54407;BME280;40313;50.308;30.374;2023-03-01T00:33:13;100292.88;;;-5.44;100.00
54407;BME280;40313;50.308;30.374;2023-03-01T00:35:41;100296.19;;;-5.48;100.00
54407;BME280;40313;50.308;30.374;2023-03-01T00:38:08;100282.59;;;-5.50;100.00
54407;BME280;40313;50.308;30.374;2023-03-01T00:40:35;100278.38;;;-5.48;100.00
54407;BME280;40313;50.308;30.374;2023-03-01T00:43:01;100275.88;;;-5.46;100.00
54407;BME280;40313;50.308;30.374;2023-03-01T00:45:28;100269.13;;;-5.46;100.00
54407;BME280;40313;50.308;30.374;2023-03-01T00:47:56;100249.59;;;-5.47;100.00
54407;BME280;40313;50.308;30.374;2023-03-01T00:50:23;100251.22;;;-5.50;100.00
54407;BME280;40313;50.308;30.374;2023-03-01T00:52:53;100240.22;;;-5.49;100.00
54407;BME280;40313;50.308;30.374;2023-03-01T00:55:19;100249.59;;;-5.47;100.00
54407;BME280;40313;50.308;30.374;2023-03-01T00:57:46;100248.81;;;-5.43;100.00
54407;BME280;40313;50.308;30.374;2023-03-01T01:00:12;100239.53;;;-5.41;100.00
54407;BME280;40313;50.308;30.374;2023-03-01T01:02:39;100246.34;;;-5.38;100.00
54407;BME280;40313;50.308;30.374;2023-03-01T01:05:06;100248.97;;;-5.33;100.00
54407;BME280;40313;50.308;30.374;2023-03-01T01:07:33;100248.19;;;-5.31;100.00
54407;BME280;40313;50.308;30.374;2023-03-01T01:10:00;100238.84;;;-5.30;100.00
54407;BME280;40313;50.308;30.374;2023-03-01T01:12:27;100237.16;;;-5.31;100.00
54407;BME280;40313;50.308;30.374;2023-03-01T01:14:53;100248.19;;;-5.31;100.00
54407;BME280;40313;50.308;30.374;2023-03-01T01:17:20;100229.47;;;-5.34;100.00
54407;BME280;40313;50.308;30.374;2023-03-01T01:19:46;100239.69;;;-5.33;100.00
54407;BME280;40313;50.308;30.374;2023-03-01T01:22:12;100236.22;;;-5.36;100.00
54407;BME280;40313;50.308;30.374;2023-03-01T01:24:39;100226.97;;;-5.33;100.00
54407;BME280;40313;50.308;30.374;2023-03-01T01:27:06;100230.34;;;-5.32;100.00
54407;BME280;40313;50.308;30.374;2023-03-01T01:29:33;100239.69;;;-5.33;100.00
54407;BME280;40313;50.308;30.374;2023-03-01T01:31:59;100224.38;;;-5.34;100.00
54407;BME280;40313;50.308;30.374;2023-03-01T01:34:25;100218.41;;;-5.36;100.00
54407;BME280;40313;50.308;30.374;2023-03-01T01:36:52;100209.00;;;-5.41;100.00
54407;BME280;40313;50.308;30.374;2023-03-01T01:39:19;100205.63;;;-5.41;100.00
54407;BME280;40313;50.308;30.374;2023-03-01T01:41:45;100202.94;;;-5.49;100.00
54407;BME280;40313;50.308;30.374;2023-03-01T01:44:14;100192.72;;;-5.50;100.00
54407;BME280;40313;50.308;30.374;2023-03-01T01:46:41;100191.91;;;-5.49;100.00
54407;BME280;40313;50.308;30.374;2023-03-01T01:49:12;100206.31;;;-5.50;100.00
54407;BME280;40313;50.308;30.374;2023-03-01T01:51:42;100202.88;;;-5.52;100.00
54407;BME280;40313;50.308;30.374;2023-03-01T01:54:12;100197.78;;;-5.52;100.00
54407;BME280;40313;50.308;30.374;2023-03-01T01:56:40;100190.97;;;-5.55;100.00
54407;BME280;40313;50.308;30.374;2023-03-01T01:59:07;100196.03;;;-5.56;100.00
54407;BME280;40313;50.308;30.374;2023-03-01T02:01:36;100192.66;;;-5.55;100.00
54407;BME280;40313;50.308;30.374;2023-03-01T02:04:02;100183.34;;;-5.55;100.00
54407;BME280;40313;50.308;30.374;2023-03-01T02:06:29;100173.91;;;-5.60;100.00
54407;BME280;40313;50.308;30.374;2023-03-01T02:08:59;100170.47;;;-5.65;100.00
54407;BME280;40313;50.308;30.374;2023-03-01T02:11:26;100173.75;;;-5.69;100.00
54407;BME280;40313;50.308;30.374;2023-03-01T02:13:53;100166.16;;;-5.69;100.00
54407;BME280;40313;50.308;30.374;2023-03-01T02:16:20;100158.56;;;-5.66;100.00
54407;BME280;40313;50.308;30.374;2023-03-01T02:18:48;100154.28;;;-5.69;100.00
54407;BME280;40313;50.308;30.374;2023-03-01T02:21:19;100158.53;;;-5.69;100.00
54407;BME280;40313;50.308;30.374;2023-03-01T02:23:48;100151.75;;;-5.69;100.00
54407;BME280;40313;50.308;30.374;2023-03-01T02:26:17;100145.88;;;-5.65;100.00
54407;BME280;40313;50.308;30.374;2023-03-01T02:28:46;100140.00;;;-5.62;100.00
54407;BME280;40313;50.308;30.374;2023-03-01T02:31:14;100140.84;;;-5.62;100.00
54407;BME280;40313;50.308;30.374;2023-03-01T02:33:59;100130.63;;;-5.65;100.00
54407;BME280;40313;50.308;30.374;2023-03-01T02:36:30;100139.09;;;-5.66;100.00
54407;BME280;40313;50.308;30.374;2023-03-01T02:38:58;100139.97;;;-5.65;100.00
54407;BME280;40313;50.308;30.374;2023-03-01T02:41:26;100144.25;;;-5.63;100.00
54407;BME280;40313;50.308;30.374;2023-03-01T02:43:54;100139.22;;;-5.58;100.00
54407;BME280;40313;50.308;30.374;2023-03-01T02:46:22;100138.41;;;-5.57;100.00
54407;BME280;40313;50.308;30.374;2023-03-01T02:48:49;100128.28;;;-5.56;100.00
54407;BME280;40313;50.308;30.374;2023-03-01T02:51:19;100131.66;;;-5.55;100.00
54407;BME280;40313;50.308;30.374;2023-03-01T02:53:53;100125.69;;;-5.57;100.00
54407;BME280;40313;50.308;30.374;2023-03-01T02:56:22;100124.03;;;-5.55;100.00
54407;BME280;40313;50.308;30.374;2023-03-01T02:58:48;100120.72;;;-5.51;100.00
54407;BME280;40313;50.308;30.374;2023-03-01T03:01:18;100113.13;;;-5.48;100.00
54407;BME280;40313;50.308;30.374;2023-03-01T03:03:44;100111.41;;;-5.49;100.00
54407;BME280;40313;50.308;30.374;2023-03-01T03:06:10;100102.97;;;-5.48;100.00
54407;BME280;40313;50.308;30.374;2023-03-01T03:08:37;100097.06;;;-5.47;100.00
54407;BME280;40313;50.308;30.374;2023-03-01T03:11:03;100106.56;;;-5.35;100.00
54407;BME280;40313;50.308;30.374;2023-03-01T03:13:30;100086.19;;;-5.36;100.00
54407;BME280;40313;50.308;30.374;2023-03-01T03:15:57;100074.31;;;-5.38;100.00
54407;BME280;40313;50.308;30.374;2023-03-01T03:18:25;100066.69;;;-5.36;100.00
54407;BME280;40313;50.308;30.374;2023-03-01T03:20:52;100054.84;;;-5.35;100.00
54407;BME280;40313;50.308;30.374;2023-03-01T03:23:19;100055.66;;;-5.38;100.00
54407;BME280;40313;50.308;30.374;2023-03-01T03:25:47;100053.13;;;-5.38;100.00
54407;BME280;40313;50.308;30.374;2023-03-01T03:28:14;100065.03;;;-5.35;100.00
54407;BME280;40313;50.308;30.374;2023-03-01T03:30:41;100070.91;;;-5.38;100.00
54407;BME280;40313;50.308;30.374;2023-03-01T03:33:07;100085.38;;;-5.35;100.00
54407;BME280;40313;50.308;30.374;2023-03-01T03:35:38;100079.50;;;-5.31;100.00
54407;BME280;40313;50.308;30.374;2023-03-01T03:38:05;100079.53;;;-5.28;100.00
54407;BME280;40313;50.308;30.374;2023-03-01T03:40:35;100079.53;;;-5.28;100.00
54407;BME280;40313;50.308;30.374;2023-03-01T03:43:01;100079.59;;;-5.25;100.00
54407;BME280;40313;50.308;30.374;2023-03-01T03:45:28;100066.00;;;-5.27;100.00
54407;BME280;40313;50.308;30.374;2023-03-01T03:47:54;100068.59;;;-5.24;100.00
54407;BME280;40313;50.308;30.374;2023-03-01T03:50:21;100069.41;;;-5.25;100.00
54407;BME280;40313;50.308;30.374;2023-03-01T03:52:48;100073.66;;;-5.26;100.00
54407;BME280;40313;50.308;30.374;2023-03-01T03:55:15;100069.38;;;-5.28;100.00
54407;BME280;40313;50.308;30.374;2023-03-01T03:57:44;100072.75;;;-5.29;100.00
54407;BME280;40313;50.308;30.374;2023-03-01T04:00:17;100071.88;;;-5.31;100.00
54407;BME280;40313;50.308;30.374;2023-03-01T04:02:44;100061.72;;;-5.30;100.00
54407;BME280;40313;50.308;30.374;2023-03-01T04:05:11;100067.66;;;-5.29;100.00
54407;BME280;40313;50.308;30.374;2023-03-01T04:07:38;100063.53;;;-5.23;100.00
54407;BME280;40313;50.308;30.374;2023-03-01T04:10:07;100059.31;;;-5.19;100.00
54407;BME280;40313;50.308;30.374;2023-03-01T04:12:34;100054.22;;;-5.19;100.00
54407;BME280;40313;50.308;30.374;2023-03-01T04:15:01;100054.19;;;-5.22;100.00
54407;BME280;40313;50.308;30.374;2023-03-01T04:17:37;100052.47;;;-5.23;100.00
54407;BME280;40313;50.308;30.374;2023-03-01T04:20:04;100050.81;;;-5.21;100.00
54407;BME280;40313;50.308;30.374;2023-03-01T04:22:32;100057.56;;;-5.23;100.00
54407;BME280;40313;50.308;30.374;2023-03-01T04:24:59;100047.47;;;-5.20;100.00
54407;BME280;40313;50.308;30.374;2023-03-01T04:27:32;100053.38;;;-5.21;100.00
54407;BME280;40313;50.308;30.374;2023-03-01T04:29:58;100048.25;;;-5.24;100.00
54407;BME280;40313;50.308;30.374;2023-03-01T04:32:25;100046.53;;;-5.24;100.00
54407;BME280;40313;50.308;30.374;2023-03-01T04:34:51;100047.38;;;-5.23;100.00
54407;BME280;40313;50.308;30.374;2023-03-01T04:37:17;100049.09;;;-5.24;100.00
54407;BME280;40313;50.308;30.374;2023-03-01T04:39:44;100049.06;;;-5.25;100.00
54407;BME280;40313;50.308;30.374;2023-03-01T04:42:10;100057.56;;;-5.23;100.00
54407;BME280;40313;50.308;30.374;2023-03-01T04:44:38;100055.84;;;-5.27;100.00
54407;BME280;40313;50.308;30.374;2023-03-01T04:47:04;100062.56;;;-5.29;100.00
54407;BME280;40313;50.308;30.374;2023-03-01T04:49:31;100062.59;;;-5.26;100.00
54407;BME280;40313;50.308;30.374;2023-03-01T04:51:57;100055.84;;;-5.27;100.00
54407;BME280;40313;50.308;30.374;2023-03-01T04:54:27;100053.34;;;-5.24;100.00
54407;BME280;40313;50.308;30.374;2023-03-01T04:56:53;100061.84;;;-5.21;100.00
54407;BME280;40313;50.308;30.374;2023-03-01T04:59:19;100067.88;;;-5.14;100.00
54407;BME280;40313;50.308;30.374;2023-03-01T05:01:48;100066.22;;;-5.12;100.00
54407;BME280;40313;50.308;30.374;2023-03-01T05:04:15;100067.13;;;-5.07;100.00
54407;BME280;40313;50.308;30.374;2023-03-01T05:06:41;100074.00;;;-5.01;100.00
54407;BME280;40313;50.308;30.374;2023-03-01T05:09:08;100059.75;;;-4.88;100.00
54407;BME280;40313;50.308;30.374;2023-03-01T05:11:36;100071.75;;;-4.79;100.00
54407;BME280;40313;50.308;30.374;2023-03-01T05:14:03;100065.06;;;-4.71;100.00
54407;BME280;40313;50.308;30.374;2023-03-01T05:16:30;100070.25;;;-4.63;100.00
54407;BME280;40313;50.308;30.374;2023-03-01T05:18:58;100070.38;;;-4.54;100.00
54407;BME280;40313;50.308;30.374;2023-03-01T05:21:25;100073.94;;;-4.40;100.00
54407;BME280;40313;50.308;30.374;2023-03-01T05:23:51;100074.88;;;-4.31;100.00
54407;BME280;40313;50.308;30.374;2023-03-01T05:26:18;100065.59;;;-4.23;100.00
54407;BME280;40313;50.308;30.374;2023-03-01T05:28:46;100072.47;;;-4.16;100.00
54407;BME280;40313;50.308;30.374;2023-03-01T05:31:13;100075.16;;;-4.02;100.00
54407;BME280;40313;50.308;30.374;2023-03-01T05:33:40;100086.28;;;-3.95;100.00
54407;BME280;40313;50.308;30.374;2023-03-01T05:36:09;100077.84;;;-3.90;100.00
54407;BME280;40313;50.308;30.374;2023-03-01T05:38:36;100080.47;;;-3.80;100.00
54407;BME280;40313;50.308;30.374;2023-03-01T05:41:02;100054.22;;;-3.69;100.00
54407;BME280;40313;50.308;30.374;2023-03-01T05:43:29;100074.72;;;-3.59;100.00
54407;BME280;40313;50.308;30.374;2023-03-01T05:45:57;100073.91;;;-3.52;100.00
54407;BME280;40313;50.308;30.374;2023-03-01T05:48:23;100068.84;;;-3.46;100.00
54407;BME280;40313;50.308;30.374;2023-03-01T05:50:50;100067.22;;;-3.36;100.00
54407;BME280;40313;50.308;30.374;2023-03-01T05:53:19;100069.00;;;-3.26;100.00
54407;BME280;40313;50.308;30.374;2023-03-01T05:55:47;100055.50;;;-3.14;100.00
54407;BME280;40313;50.308;30.374;2023-03-01T05:58:16;100055.53;;;-3.02;100.00
54407;BME280;40313;50.308;30.374;2023-03-01T06:00:45;100065.81;;;-2.92;100.00
54407;BME280;40313;50.308;30.374;2023-03-01T06:03:14;100065.00;;;-2.87;100.00
54407;BME280;40313;50.308;30.374;2023-03-01T06:05:41;100062.47;;;-2.79;100.00
54407;BME280;40313;50.308;30.374;2023-03-01T06:08:09;100059.09;;;-2.70;100.00
54407;BME280;40313;50.308;30.374;2023-03-01T06:10:37;100060.84;;;-2.62;100.00
54407;BME280;40313;50.308;30.374;2023-03-01T06:13:04;100073.66;;;-2.52;100.00
54407;BME280;40313;50.308;30.374;2023-03-01T06:15:30;100078.78;;;-2.49;100.00
54407;BME280;40313;50.308;30.374;2023-03-01T06:17:57;100067.75;;;-2.44;100.00
54407;BME280;40313;50.308;30.374;2023-03-01T06:20:25;100073.72;;;-2.40;100.00
54407;BME280;40313;50.308;30.374;2023-03-01T06:22:53;100074.56;;;-2.36;100.00
54407;BME280;40313;50.308;30.374;2023-03-01T06:25:20;100077.97;;;-2.39;100.00
54407;BME280;40313;50.308;30.374;2023-03-01T06:27:48;100078.84;;;-2.31;100.00
54407;BME280;40313;50.308;30.374;2023-03-01T06:30:15;100084.00;;;-2.21;100.00
54407;BME280;40313;50.308;30.374;2023-03-01T06:32:42;100082.34;;;-2.04;100.00
54407;BME280;40313;50.308;30.374;2023-03-01T06:35:10;100069.59;;;-1.82;100.00
54407;BME280;40313;50.308;30.374;2023-03-01T06:37:37;100078.97;;;-1.78;100.00
54407;BME280;40313;50.308;30.374;2023-03-01T06:40:06;100080.72;;;-1.59;100.00
54407;BME280;40313;50.308;30.374;2023-03-01T06:42:33;100076.41;;;-1.49;100.00
54407;BME280;40313;50.308;30.374;2023-03-01T06:45:01;100078.13;;;-1.48;100.00
54407;BME280;40313;50.308;30.374;2023-03-01T06:47:27;100090.94;;;-1.49;100.00
54407;BME280;40313;50.308;30.374;2023-03-01T06:49:54;100089.22;;;-1.52;100.00
54407;BME280;40313;50.308;30.374;2023-03-01T06:52:20;100090.06;;;-1.58;100.00
54407;BME280;40313;50.308;30.374;2023-03-01T06:54:46;100091.78;;;-1.60;100.00
54407;BME280;40313;50.308;30.374;2023-03-01T06:57:13;100077.28;;;-1.51;100.00
54407;BME280;40313;50.308;30.374;2023-03-01T06:59:39;100086.66;;;-1.49;100.00
54407;BME280;40313;50.308;30.374;2023-03-01T07:02:08;100082.41;;;-1.42;100.00
54407;BME280;40313;50.308;30.374;2023-03-01T07:04:35;100082.41;;;-1.33;100.00
54407;BME280;40313;50.308;30.374;2023-03-01T07:07:01;100087.53;;;-1.30;100.00
54407;BME280;40313;50.308;30.374;2023-03-01T07:09:28;100088.34;;;-1.14;100.00
54407;BME280;40313;50.308;30.374;2023-03-01T07:11:54;100101.13;;;-1.06;100.00
54407;BME280;40313;50.308;30.374;2023-03-01T07:14:22;100079.78;;;-0.97;100.00
54407;BME280;40313;50.308;30.374;2023-03-01T07:16:49;100087.44;;;-0.96;100.00
54407;BME280;40313;50.308;30.374;2023-03-01T07:19:17;100084.03;;;-0.82;100.00
54407;BME280;40313;50.308;30.374;2023-03-01T07:21:43;100084.00;;;-0.67;100.00
54407;BME280;40313;50.308;30.374;2023-03-01T07:24:10;100083.94;;;-0.55;100.00
54407;BME280;40313;50.308;30.374;2023-03-01T07:26:36;100077.03;;;-0.40;100.00
54407;BME280;40313;50.308;30.374;2023-03-01T07:29:05;100077.81;;;-0.26;100.00
54407;BME280;40313;50.308;30.374;2023-03-01T07:31:31;100077.78;;;-0.15;100.00
54407;BME280;40313;50.308;30.374;2023-03-01T07:33:58;100081.06;;;0.04;100.00
54407;BME280;40313;50.308;30.374;2023-03-01T07:36:26;100079.28;;;0.19;100.00
54407;BME280;40313;50.308;30.374;2023-03-01T07:38:52;100073.25;;;0.27;100.00
54407;BME280;40313;50.308;30.374;2023-03-01T07:41:20;100080.81;;;0.43;100.00
54407;BME280;40313;50.308;30.374;2023-03-01T07:43:47;100082.50;;;0.47;100.00
54407;BME280;40313;50.308;30.374;2023-03-01T07:46:13;100074.88;;;0.39;100.00
54407;BME280;40313;50.308;30.374;2023-03-01T07:48:40;100062.03;;;0.38;100.00
54407;BME280;40313;50.308;30.374;2023-03-01T07:51:07;100075.69;;;0.43;100.00
54407;BME280;40313;50.308;30.374;2023-03-01T07:53:35;100079.97;;;0.42;100.00
54407;BME280;40313;50.308;30.374;2023-03-01T07:56:03;100074.72;;;0.58;100.00
54407;BME280;40313;50.308;30.374;2023-03-01T07:58:29;100073.03;;;0.54;100.00
54407;BME280;40313;50.308;30.374;2023-03-01T08:00:56;100072.97;;;0.64;100.00
54407;BME280;40313;50.308;30.374;2023-03-01T08:03:22;100065.19;;;0.71;100.00
54407;BME280;40313;50.308;30.374;2023-03-01T08:05:49;100067.63;;;0.84;100.00
54407;BME280;40313;50.308;30.374;2023-03-01T08:08:15;100064.13;;;0.93;100.00
54407;BME280;40313;50.308;30.374;2023-03-01T08:10:43;100060.44;;;1.17;100.00
54407;BME280;40313;50.308;30.374;2023-03-01T08:13:09;100068.91;;;1.26;100.00
54407;BME280;40313;50.308;30.374;2023-03-01T08:15:36;100073.13;;;1.30;100.00
54407;BME280;40313;50.308;30.374;2023-03-01T08:18:02;100064.66;;;1.23;100.00
54407;BME280;40313;50.308;30.374;2023-03-01T08:20:29;100072.44;;;1.15;100.00
54407;BME280;40313;50.308;30.374;2023-03-01T08:22:57;100081.91;;;1.12;100.00
54407;BME280;40313;50.308;30.374;2023-03-01T08:25:24;100085.28;;;1.17;100.00
54407;BME280;40313;50.308;30.374;2023-03-01T08:27:51;100086.09;;;1.20;100.00
54407;BME280;40313;50.308;30.374;2023-03-01T08:30:18;100083.53;;;1.20;100.00
54407;BME280;40313;50.308;30.374;2023-03-01T08:32:45;100086.03;;;1.27;100.00
54407;BME280;40313;50.308;30.374;2023-03-01T08:35:12;100092.81;;;1.34;100.00
54407;BME280;40313;50.308;30.374;2023-03-01T08:37:38;100088.59;;;1.27;100.00
54407;BME280;40313;50.308;30.374;2023-03-01T08:40:05;100078.34;;;1.25;100.00
54407;BME280;40313;50.308;30.374;2023-03-01T08:42:34;100079.28;;;1.18;100.00
54407;BME280;40313;50.308;30.374;2023-03-01T08:45:02;100085.34;;;1.12;100.00
54407;BME280;40313;50.308;30.374;2023-03-01T08:47:29;100081.00;;;1.17;100.00
54407;BME280;40313;50.308;30.374;2023-03-01T08:49:55;100079.19;;;1.24;100.00
54407;BME280;40313;50.308;30.374;2023-03-01T08:52:22;100063.81;;;1.23;100.00
54407;BME280;40313;50.308;30.374;2023-03-01T08:54:49;100054.34;;;1.26;100.00
54407;BME280;40313;50.308;30.374;2023-03-01T08:57:16;100066.44;;;1.18;100.00
54407;BME280;40313;50.308;30.374;2023-03-01T08:59:42;100061.97;;;1.32;100.00
54407;BME280;40313;50.308;30.374;2023-03-01T09:02:13;100063.44;;;1.53;100.00
54407;BME280;40313;50.308;30.374;2023-03-01T09:04:39;100057.19;;;1.75;100.00
54407;BME280;40313;50.308;30.374;2023-03-01T09:07:06;100057.78;;;1.94;100.00
54407;BME280;40313;50.308;30.374;2023-03-01T09:09:33;100058.38;;;2.11;100.00
54407;BME280;40313;50.308;30.374;2023-03-01T09:11:59;100062.50;;;2.23;100.00
54407;BME280;40313;50.308;30.374;2023-03-01T09:14:26;100064.09;;;2.29;100.00
54407;BME280;40313;50.308;30.374;2023-03-01T09:16:52;100061.44;;;2.36;100.00
54407;BME280;40313;50.308;30.374;2023-03-01T09:19:20;100077.66;;;2.40;100.00
54407;BME280;40313;50.308;30.374;2023-03-01T09:21:47;100071.69;;;2.38;100.00
54407;BME280;40313;50.308;30.374;2023-03-01T09:24:19;100076.09;;;2.30;100.00
54407;BME280;40313;50.308;30.374;2023-03-01T09:26:46;100082.31;;;2.16;100.00
54407;BME280;40313;50.308;30.374;2023-03-01T09:29:12;100077.41;;;1.99;100.00
54407;BME280;40313;50.308;30.374;2023-03-01T09:31:39;100068.53;;;2.22;100.00
54407;BME280;40313;50.308;30.374;2023-03-01T09:34:05;100067.56;;;2.28;100.00
54407;BME280;40313;50.308;30.374;2023-03-01T09:36:33;100069.13;;;2.38;100.00
54407;BME280;40313;50.308;30.374;2023-03-01T09:39:00;100064.63;;;2.51;100.00
54407;BME280;40313;50.308;30.374;2023-03-01T09:41:38;100074.47;;;2.80;100.00
54407;BME280;40313;50.308;30.374;2023-03-01T09:44:10;100063.03;;;2.93;100.00
54407;BME280;40313;50.308;30.374;2023-03-01T09:46:40;100066.13;;;3.13;100.00
54407;BME280;40313;50.308;30.374;2023-03-01T09:49:10;100073.72;;;3.20;100.00
54407;BME280;40313;50.308;30.374;2023-03-01T09:51:39;100069.22;;;3.30;100.00
54407;BME280;40313;50.308;30.374;2023-03-01T09:54:06;100058.91;;;3.30;100.00
54407;BME280;40313;50.308;30.374;2023-03-01T09:56:37;100071.06;;;3.25;100.00
54407;BME280;40313;50.308;30.374;2023-03-01T09:59:15;100064.56;;;3.04;100.00
54407;BME280;40313;50.308;30.374;2023-03-01T10:01:52;100064.94;;;2.84;100.00
54407;BME280;40313;50.308;30.374;2023-03-01T10:04:28;100063.50;;;2.66;100.00
54407;BME280;40313;50.308;30.374;2023-03-01T10:07:10;100070.59;;;2.54;100.00
54407;BME280;40313;50.308;30.374;2023-03-01T10:09:42;100058.59;;;2.53;100.00
54407;BME280;40313;50.308;30.374;2023-03-01T10:12:14;100059.13;;;2.72;100.00
54407;BME280;40313;50.308;30.374;2023-03-01T10:14:44;100061.28;;;2.96;100.00
54407;BME280;40313;50.308;30.374;2023-03-01T10:17:23;100061.06;;;3.08;100.00
54407;BME280;40313;50.308;30.374;2023-03-01T10:19:51;100052.78;;;2.90;100.00
54407;BME280;40313;50.308;30.374;2023-03-01T10:22:20;100065.34;;;2.61;100.00
54407;BME280;40313;50.308;30.374;2023-03-01T10:24:48;100069.59;;;2.63;100.00
54407;BME280;40313;50.308;30.374;2023-03-01T10:27:19;100080.94;;;2.50;100.00
54407;BME280;40313;50.308;30.374;2023-03-01T10:29:54;100077.78;;;2.32;100.00
54407;BME280;40313;50.308;30.374;2023-03-01T10:32:25;100073.63;;;2.25;100.00
54407;BME280;40313;50.308;30.374;2023-03-01T10:34:52;100067.66;;;2.20;100.00
54407;BME280;40313;50.308;30.374;2023-03-01T10:37:21;100069.41;;;2.19;100.00
54407;BME280;40313;50.308;30.374;2023-03-01T10:39:58;100065.13;;;2.18;100.00
54407;BME280;40313;50.308;30.374;2023-03-01T10:42:29;100071.16;;;2.17;100.00
54407;BME280;40313;50.308;30.374;2023-03-01T10:44:57;100065.97;;;2.20;100.00
54407;BME280;40313;50.308;30.374;2023-03-01T10:47:26;100056.56;;;2.18;100.00
54407;BME280;40313;50.308;30.374;2023-03-01T10:49:56;100056.59;;;2.16;100.00
54407;BME280;40313;50.308;30.374;2023-03-01T10:52:28;100063.31;;;2.25;100.00
54407;BME280;40313;50.308;30.374;2023-03-01T10:54:56;100057.06;;;2.41;100.00
54407;BME280;40313;50.308;30.374;2023-03-01T10:57:36;100061.66;;;2.74;100.00
54407;BME280;40313;50.308;30.374;2023-03-01T11:00:22;100055.22;;;2.98;100.00
54407;BME280;40313;50.308;30.374;2023-03-01T11:03:02;100054.94;;;3.14;100.00
54407;BME280;40313;50.308;30.374;2023-03-01T11:05:29;100059.13;;;3.19;100.00
54407;BME280;40313;50.308;30.374;2023-03-01T11:08:01;100062.41;;;3.27;100.00
54407;BME280;40313;50.308;30.374;2023-03-01T11:10:29;100046.25;;;3.19;100.00
54407;BME280;40313;50.308;30.374;2023-03-01T11:13:06;100051.53;;;3.13;100.00
54407;BME280;40313;50.308;30.374;2023-03-01T11:15:33;100047.47;;;3.00;100.00
54407;BME280;40313;50.308;30.374;2023-03-01T11:18:00;100059.69;;;2.88;100.00
54407;BME280;40313;50.308;30.374;2023-03-01T11:20:30;100054.47;;;2.91;100.00
54407;BME280;40313;50.308;30.374;2023-03-01T11:23:02;100060.97;;;3.13;100.00
54407;BME280;40313;50.308;30.374;2023-03-01T11:25:33;100054.88;;;3.17;100.00
54407;BME280;40313;50.308;30.374;2023-03-01T11:28:04;100058.00;;;3.33;100.00
54407;BME280;40313;50.308;30.374;2023-03-01T11:30:35;100052.38;;;3.57;100.00
54407;BME280;40313;50.308;30.374;2023-03-01T11:33:13;100064.06;;;3.72;100.00
54407;BME280;40313;50.308;30.374;2023-03-01T11:35:47;100059.19;;;3.58;100.00
54407;BME280;40313;50.308;30.374;2023-03-01T11:38:21;100062.09;;;3.43;100.00
54407;BME280;40313;50.308;30.374;2023-03-01T11:40:52;100066.66;;;3.28;100.00
54407;BME280;40313;50.308;30.374;2023-03-01T11:43:28;100063.19;;;3.31;100.00
54407;BME280;40313;50.308;30.374;2023-03-01T11:46:36;100066.50;;;3.38;100.00
54407;BME280;40313;50.308;30.374;2023-03-01T11:49:18;100057.19;;;3.31;100.00
54407;BME280;40313;50.308;30.374;2023-03-01T11:51:53;100054.88;;;3.17;100.00
54407;BME280;40313;50.308;30.374;2023-03-01T11:54:33;100051.81;;;2.98;100.00
54407;BME280;40313;50.308;30.374;2023-03-01T11:57:13;100048.47;;;2.91;100.00
54407;BME280;40313;50.308;30.374;2023-03-01T11:59:57;100053.59;;;2.92;100.00
54407;BME280;40313;50.308;30.374;2023-03-01T12:02:40;100043.31;;;2.91;100.00
54407;BME280;40313;50.308;30.374;2023-03-01T12:05:25;100049.53;;;2.81;100.00
54407;BME280;40313;50.308;30.374;2023-03-01T12:08:04;100054.41;;;2.46;100.00
54407;BME280;40313;50.308;30.374;2023-03-01T12:10:38;100053.03;;;2.23;100.00
54407;BME280;40313;50.308;30.374;2023-03-01T12:19:18;100059.59;;;1.85;100.00
54407;BME280;40313;50.308;30.374;2023-03-01T12:22:09;100055.41;;;1.78;100.00
54407;BME280;40313;50.308;30.374;2023-03-01T12:24:47;100061.56;;;1.68;100.00
54407;BME280;40313;50.308;30.374;2023-03-01T12:27:36;100053.94;;;1.60;100.00
54407;BME280;40313;50.308;30.374;2023-03-01T12:30:20;100063.47;;;1.52;100.00
54407;BME280;40313;50.308;30.374;2023-03-01T12:32:53;100057.50;;;1.48;100.00
54407;BME280;40313;50.308;30.374;2023-03-01T12:35:44;100070.41;;;1.44;100.00
54407;BME280;40313;50.308;30.374;2023-03-01T12:38:23;100057.63;;;1.39;100.00
54407;BME280;40313;50.308;30.374;2023-03-01T12:41:11;100070.53;;;1.34;100.00
54407;BME280;40313;50.308;30.374;2023-03-01T12:43:58;100065.44;;;1.30;100.00
54407;BME280;40313;50.308;30.374;2023-03-01T12:46:38;100070.56;;;1.30;100.00
54407;BME280;40313;50.308;30.374;2023-03-01T12:49:13;100069.72;;;1.31;100.00